createdAt,value
2018-09-12T00:00:03.024Z,1022.93
2018-09-12T00:01:02.799Z,1022.92
2018-09-12T00:02:02.735Z,1022.88
2018-09-12T00:03:02.792Z,1022.88
2018-09-12T00:04:02.949Z,1022.9
2018-09-12T00:05:02.908Z,1022.91
2018-09-12T00:06:02.974Z,1022.89
2018-09-12T00:07:02.986Z,1022.9
2018-09-12T00:08:02.853Z,1022.91
2018-09-12T00:09:03.003Z,1022.88
2018-09-12T00:10:03.041Z,1022.82
2018-09-12T00:11:03.014Z,1022.81
2018-09-12T00:12:02.874Z,1022.82
2018-09-12T00:13:02.977Z,1022.82
2018-09-12T00:14:03.100Z,1022.83
2018-09-12T00:15:03.026Z,1022.77
2018-09-12T00:16:03.079Z,1022.75
2018-09-12T00:17:02.829Z,1022.75
2018-09-12T00:18:03.122Z,1022.76
2018-09-12T00:19:03.180Z,1022.79
2018-09-12T00:20:03.055Z,1022.74
2018-09-12T00:21:03.296Z,1022.78
2018-09-12T00:22:03.037Z,1022.76
2018-09-12T00:23:03.329Z,1022.76
2018-09-12T00:24:02.976Z,1022.7
2018-09-12T00:25:02.894Z,1022.71
2018-09-12T00:26:02.957Z,1022.73
2018-09-12T00:27:02.856Z,1022.7
2018-09-12T00:28:02.969Z,1022.67
2018-09-12T00:29:02.917Z,1022.72
2018-09-12T00:30:03.255Z,1022.7
2018-09-12T00:31:02.760Z,1022.68
2018-09-12T00:32:03.057Z,1022.7
2018-09-12T00:33:03.004Z,1022.69
2018-09-12T00:34:03.041Z,1022.71
2018-09-12T00:35:02.955Z,1022.61
2018-09-12T00:36:03.359Z,1022.63
2018-09-12T00:37:03.289Z,1022.59
2018-09-12T00:38:02.939Z,1022.62
2018-09-12T00:39:02.969Z,1022.63
2018-09-12T00:40:02.816Z,1022.7
2018-09-12T00:41:02.761Z,1022.68
2018-09-12T00:42:03.047Z,1022.72
2018-09-12T00:43:02.888Z,1022.7
2018-09-12T00:44:03.094Z,1022.66
2018-09-12T00:45:03.016Z,1022.7
2018-09-12T00:46:02.849Z,1022.68
2018-09-12T00:47:02.691Z,1022.67
2018-09-12T00:48:02.915Z,1022.7
2018-09-12T00:49:03.044Z,1022.71
2018-09-12T00:50:02.987Z,1022.62
2018-09-12T00:51:03.013Z,1022.64
2018-09-12T00:52:03.039Z,1022.61
2018-09-12T00:53:02.994Z,1022.59
2018-09-12T00:54:02.998Z,1022.64
2018-09-12T00:55:02.948Z,1022.61
2018-09-12T00:56:02.837Z,1022.6
2018-09-12T00:57:02.965Z,1022.6
2018-09-12T00:58:03.056Z,1022.67
2018-09-12T00:59:03.031Z,1022.62
2018-09-12T01:00:02.880Z,1022.6
2018-09-12T01:01:02.885Z,1022.58
2018-09-12T01:02:03.055Z,1022.56
2018-09-12T01:03:03.063Z,1022.57
2018-09-12T01:04:03.133Z,1022.57
2018-09-12T01:05:02.795Z,1022.54
2018-09-12T01:06:02.867Z,1022.58
2018-09-12T01:07:03.145Z,1022.54
2018-09-12T01:08:02.747Z,1022.57
2018-09-12T01:09:03.052Z,1022.54
2018-09-12T01:10:02.750Z,1022.53
2018-09-12T01:11:02.835Z,1022.48
2018-09-12T01:12:03.109Z,1022.5
2018-09-12T01:13:02.929Z,1022.46
2018-09-12T01:14:02.927Z,1022.46
2018-09-12T01:15:02.857Z,1022.46
2018-09-12T01:16:03.015Z,1022.48
2018-09-12T01:17:03.172Z,1022.49
2018-09-12T01:18:02.999Z,1022.44
2018-09-12T01:19:03.027Z,1022.49
2018-09-12T01:20:03.044Z,1022.47
2018-09-12T01:21:02.854Z,1022.47
2018-09-12T01:22:02.904Z,1022.44
2018-09-12T01:23:02.747Z,1022.42
2018-09-12T01:24:02.857Z,1022.43
2018-09-12T01:25:02.922Z,1022.37
2018-09-12T01:26:02.984Z,1022.39
2018-09-12T01:27:02.997Z,1022.36
2018-09-12T01:28:02.879Z,1022.35
2018-09-12T01:29:02.911Z,1022.4
2018-09-12T01:30:03.004Z,1022.36
2018-09-12T01:31:02.754Z,1022.39
2018-09-12T01:32:02.968Z,1022.41
2018-09-12T01:33:02.986Z,1022.4
2018-09-12T01:34:02.857Z,1022.35
2018-09-12T01:35:02.855Z,1022.34
2018-09-12T01:36:02.856Z,1022.41
2018-09-12T01:37:03.039Z,1022.35
2018-09-12T01:38:02.999Z,1022.37
2018-09-12T01:39:02.959Z,1022.36
2018-09-12T01:40:02.955Z,1022.35
2018-09-12T01:41:03.006Z,1022.34
2018-09-12T01:42:03.020Z,1022.33
2018-09-12T01:43:02.928Z,1022.3
2018-09-12T01:44:02.789Z,1022.32
2018-09-12T01:45:02.757Z,1022.32
2018-09-12T01:46:03.043Z,1022.32
2018-09-12T01:47:03.030Z,1022.29
2018-09-12T01:48:02.912Z,1022.34
2018-09-12T01:49:02.925Z,1022.31
2018-09-12T01:50:02.930Z,1022.3
2018-09-12T01:51:02.884Z,1022.32
2018-09-12T01:52:02.914Z,1022.35
2018-09-12T01:53:02.932Z,1022.31
2018-09-12T01:54:03.005Z,1022.32
2018-09-12T01:55:02.894Z,1022.33
2018-09-12T01:56:02.790Z,1022.33
2018-09-12T01:57:03.050Z,1022.31
2018-09-12T01:58:02.926Z,1022.33
2018-09-12T01:59:03.011Z,1022.28
2018-09-12T02:00:03.110Z,1022.26
2018-09-12T02:01:02.790Z,1022.28
2018-09-12T02:02:03.034Z,1022.26
2018-09-12T02:03:02.895Z,1022.26
2018-09-12T02:04:03.038Z,1022.25
2018-09-12T02:05:02.853Z,1022.23
2018-09-12T02:06:02.810Z,1022.22
2018-09-12T02:07:02.759Z,1022.25
2018-09-12T02:08:02.860Z,1022.25
2018-09-12T02:09:02.912Z,1022.26
2018-09-12T02:10:03.075Z,1022.27
2018-09-12T02:11:02.826Z,1022.24
2018-09-12T02:12:02.953Z,1022.24
2018-09-12T02:13:02.936Z,1022.24
2018-09-12T02:14:02.927Z,1022.19
2018-09-12T02:15:02.800Z,1022.17
2018-09-12T02:16:02.720Z,1022.16
2018-09-12T02:17:03.056Z,1022.15
2018-09-12T02:18:03.175Z,1022.16
2018-09-12T02:19:02.974Z,1022.16
2018-09-12T02:20:03.111Z,1022.1
2018-09-12T02:21:02.791Z,1022.13
2018-09-12T02:22:02.940Z,1022.13
2018-09-12T02:23:02.927Z,1022.13
2018-09-12T02:24:03.003Z,1022.1
2018-09-12T02:25:02.941Z,1022.12
2018-09-12T02:26:02.821Z,1022.12
2018-09-12T02:27:02.984Z,1022.09
2018-09-12T02:28:03.028Z,1022.07
2018-09-12T02:29:02.961Z,1022.05
2018-09-12T02:30:02.715Z,1022.11
2018-09-12T02:31:02.944Z,1022.08
2018-09-12T02:32:03.019Z,1022.04
2018-09-12T02:33:02.809Z,1022.1
2018-09-12T02:34:02.874Z,1022.01
2018-09-12T02:35:02.900Z,1022.02
2018-09-12T02:36:02.988Z,1022.06
2018-09-12T02:37:03.068Z,1021.97
2018-09-12T02:38:02.910Z,1022.01
2018-09-12T02:39:02.953Z,1022.04
2018-09-12T02:40:03.282Z,1021.99
2018-09-12T02:41:02.849Z,1022.03
2018-09-12T02:42:03.146Z,1021.99
2018-09-12T02:43:02.836Z,1021.97
2018-09-12T02:44:02.895Z,1021.96
2018-09-12T02:45:02.751Z,1021.97
2018-09-12T02:46:02.783Z,1021.94
2018-09-12T02:47:02.853Z,1021.9
2018-09-12T02:48:03.105Z,1021.96
2018-09-12T02:49:02.815Z,1021.96
2018-09-12T02:50:02.916Z,1022
2018-09-12T02:51:02.624Z,1021.98
2018-09-12T02:52:02.980Z,1021.99
2018-09-12T02:53:03.105Z,1021.95
2018-09-12T02:54:02.990Z,1021.97
2018-09-12T02:55:02.736Z,1021.98
2018-09-12T02:56:02.826Z,1021.95
2018-09-12T02:57:02.884Z,1021.95
2018-09-12T02:58:02.728Z,1021.96
2018-09-12T02:59:02.727Z,1021.96
2018-09-12T03:00:02.893Z,1021.97
2018-09-12T03:01:03.169Z,1022.01
2018-09-12T03:02:02.815Z,1021.98
2018-09-12T03:03:02.672Z,1021.97
2018-09-12T03:04:02.976Z,1021.94
2018-09-12T03:05:03.036Z,1021.96
2018-09-12T03:06:02.807Z,1021.97
2018-09-12T03:07:02.925Z,1021.96
2018-09-12T03:08:03.175Z,1021.96
2018-09-12T03:09:02.870Z,1021.94
2018-09-12T03:10:03.190Z,1021.9
2018-09-12T03:11:02.718Z,1021.87
2018-09-12T03:12:02.973Z,1021.91
2018-09-12T03:13:02.993Z,1021.86
2018-09-12T03:14:02.785Z,1021.86
2018-09-12T03:15:02.870Z,1021.83
2018-09-12T03:16:03.091Z,1021.82
2018-09-12T03:17:02.710Z,1021.84
2018-09-12T03:18:02.833Z,1021.83
2018-09-12T03:19:03.085Z,1021.81
2018-09-12T03:20:02.958Z,1021.8
2018-09-12T03:21:03.915Z,1021.83
2018-09-12T03:22:03.068Z,1021.8
2018-09-12T03:23:02.835Z,1021.82
2018-09-12T03:24:02.909Z,1021.82
2018-09-12T03:25:03.049Z,1021.81
2018-09-12T03:26:02.865Z,1021.82
2018-09-12T03:27:03.414Z,1021.87
2018-09-12T03:28:03.023Z,1021.86
2018-09-12T03:29:02.776Z,1021.81
2018-09-12T03:30:02.899Z,1021.82
2018-09-12T03:31:03.017Z,1021.76
2018-09-12T03:32:02.884Z,1021.75
2018-09-12T03:33:02.980Z,1021.77
2018-09-12T03:34:02.947Z,1021.75
2018-09-12T03:35:02.823Z,1021.74
2018-09-12T03:36:03.001Z,1021.71
2018-09-12T03:37:02.832Z,1021.7
2018-09-12T03:38:02.853Z,1021.69
2018-09-12T03:39:02.707Z,1021.71
2018-09-12T03:40:02.737Z,1021.72
2018-09-12T03:41:03.067Z,1021.68
2018-09-12T03:42:02.734Z,1021.72
2018-09-12T03:43:02.844Z,1021.72
2018-09-12T03:44:02.846Z,1021.79
2018-09-12T03:45:03.150Z,1021.76
2018-09-12T03:46:02.878Z,1021.77
2018-09-12T03:47:02.968Z,1021.78
2018-09-12T03:48:03.279Z,1021.76
2018-09-12T03:49:02.815Z,1021.84
2018-09-12T03:50:02.985Z,1021.81
2018-09-12T03:51:02.818Z,1021.81
2018-09-12T03:52:02.968Z,1021.84
2018-09-12T03:53:02.863Z,1021.89
2018-09-12T03:54:02.800Z,1021.87
2018-09-12T03:55:02.927Z,1021.87
2018-09-12T03:56:02.846Z,1021.88
2018-09-12T03:57:02.868Z,1021.88
2018-09-12T03:58:02.960Z,1021.87
2018-09-12T03:59:02.869Z,1021.88
2018-09-12T04:00:02.872Z,1021.87
2018-09-12T04:01:02.969Z,1021.9
2018-09-12T04:02:02.668Z,1021.93
2018-09-12T04:03:02.728Z,1021.92
2018-09-12T04:04:02.850Z,1021.91
2018-09-12T04:05:02.780Z,1021.91
2018-09-12T04:06:02.909Z,1021.94
2018-09-12T04:07:02.758Z,1021.91
2018-09-12T04:08:02.831Z,1021.88
2018-09-12T04:09:02.778Z,1021.89
2018-09-12T04:10:03.003Z,1021.89
2018-09-12T04:11:02.687Z,1021.86
2018-09-12T04:12:02.892Z,1021.87
2018-09-12T04:13:02.931Z,1021.87
2018-09-12T04:14:02.941Z,1021.9
2018-09-12T04:15:02.771Z,1021.86
2018-09-12T04:16:02.752Z,1021.86
2018-09-12T04:17:03.166Z,1021.87
2018-09-12T04:18:02.963Z,1021.88
2018-09-12T04:19:02.924Z,1021.91
2018-09-12T04:20:02.750Z,1021.89
2018-09-12T04:21:02.852Z,1021.9
2018-09-12T04:22:02.796Z,1021.87
2018-09-12T04:23:02.792Z,1021.89
2018-09-12T04:24:03.037Z,1021.88
2018-09-12T04:25:03.057Z,1021.87
2018-09-12T04:26:02.872Z,1021.93
2018-09-12T04:27:02.885Z,1021.91
2018-09-12T04:28:02.929Z,1021.91
2018-09-12T04:29:02.787Z,1021.87
2018-09-12T04:30:03.094Z,1021.89
2018-09-12T04:31:02.930Z,1021.92
2018-09-12T04:32:02.889Z,1021.88
2018-09-12T04:33:02.754Z,1021.9
2018-09-12T04:34:02.822Z,1021.91
2018-09-12T04:35:02.682Z,1021.89
2018-09-12T04:36:02.848Z,1021.9
2018-09-12T04:37:02.805Z,1021.85
2018-09-12T04:38:02.862Z,1021.82
2018-09-12T04:39:02.909Z,1021.85
2018-09-12T04:40:03.195Z,1021.8
2018-09-12T04:41:03.027Z,1021.78
2018-09-12T04:42:02.824Z,1021.8
2018-09-12T04:43:02.864Z,1021.77
2018-09-12T04:44:03.124Z,1021.81
2018-09-12T04:45:02.924Z,1021.82
2018-09-12T04:46:02.928Z,1021.81
2018-09-12T04:47:02.895Z,1021.83
2018-09-12T04:48:02.897Z,1021.85
2018-09-12T04:49:02.857Z,1021.84
2018-09-12T04:50:02.834Z,1021.78
2018-09-12T04:51:02.883Z,1021.79
2018-09-12T04:52:02.967Z,1021.84
2018-09-12T04:53:02.731Z,1021.84
2018-09-12T04:54:02.746Z,1021.79
2018-09-12T04:55:03.707Z,1021.83
2018-09-12T04:56:02.947Z,1021.84
2018-09-12T04:57:02.982Z,1021.83
2018-09-12T04:58:02.833Z,1021.82
2018-09-12T04:59:02.867Z,1021.83
2018-09-12T05:00:03.146Z,1021.83
2018-09-12T05:01:02.824Z,1021.84
2018-09-12T05:02:02.762Z,1021.82
2018-09-12T05:03:03.131Z,1021.86
2018-09-12T05:04:02.918Z,1021.87
2018-09-12T05:05:02.762Z,1021.88
2018-09-12T05:06:02.808Z,1021.88
2018-09-12T05:07:03.005Z,1021.94
2018-09-12T05:08:03.065Z,1021.88
2018-09-12T05:09:02.941Z,1021.9
2018-09-12T05:10:02.986Z,1021.92
2018-09-12T05:11:02.845Z,1021.89
2018-09-12T05:12:02.636Z,1021.9
2018-09-12T05:13:02.857Z,1021.86
2018-09-12T05:14:02.895Z,1021.86
2018-09-12T05:15:02.966Z,1021.93
2018-09-12T05:16:03.199Z,1021.9
2018-09-12T05:17:03.033Z,1021.92
2018-09-12T05:18:02.941Z,1021.88
2018-09-12T05:19:02.767Z,1021.92
2018-09-12T05:20:02.866Z,1021.91
2018-09-12T05:21:02.881Z,1021.93
2018-09-12T05:22:03.107Z,1021.87
2018-09-12T05:23:03.056Z,1021.92
2018-09-12T05:24:02.853Z,1021.87
2018-09-12T05:25:02.647Z,1021.9
2018-09-12T05:26:02.973Z,1021.88
2018-09-12T05:27:02.803Z,1021.84
2018-09-12T05:28:02.842Z,1021.91
2018-09-12T05:29:02.755Z,1021.84
2018-09-12T05:30:02.763Z,1021.85
2018-09-12T05:31:02.880Z,1021.8
2018-09-12T05:32:02.953Z,1021.82
2018-09-12T05:33:02.855Z,1021.81
2018-09-12T05:34:02.890Z,1021.87
2018-09-12T05:35:02.963Z,1021.86
2018-09-12T05:36:02.904Z,1021.88
2018-09-12T05:37:02.763Z,1021.83
2018-09-12T05:38:02.776Z,1021.85
2018-09-12T05:39:02.812Z,1021.87
2018-09-12T05:40:02.850Z,1021.85
2018-09-12T05:41:02.714Z,1021.85
2018-09-12T05:42:02.680Z,1021.84
2018-09-12T05:43:02.660Z,1021.83
2018-09-12T05:44:02.852Z,1021.83
2018-09-12T05:45:02.797Z,1021.84
2018-09-12T05:46:02.807Z,1021.86
2018-09-12T05:47:02.715Z,1021.89
2018-09-12T05:48:02.925Z,1021.82
2018-09-12T05:49:02.845Z,1021.84
2018-09-12T05:50:03.108Z,1021.87
2018-09-12T05:51:02.880Z,1021.86
2018-09-12T05:52:02.919Z,1021.86
2018-09-12T05:53:02.810Z,1021.89
2018-09-12T05:54:02.886Z,1021.86
2018-09-12T05:55:02.818Z,1021.87
2018-09-12T05:56:03.185Z,1021.88
2018-09-12T05:57:02.905Z,1021.86
2018-09-12T05:58:02.943Z,1021.86
2018-09-12T05:59:03.054Z,1021.83
2018-09-12T06:00:02.736Z,1021.82
2018-09-12T06:01:02.945Z,1021.82
2018-09-12T06:02:02.911Z,1021.81
2018-09-12T06:03:02.836Z,1021.79
2018-09-12T06:04:02.969Z,1021.84
2018-09-12T06:05:03.030Z,1021.85
2018-09-12T06:06:02.938Z,1021.86
2018-09-12T06:07:03.683Z,1021.86
2018-09-12T06:08:03.042Z,1021.84
2018-09-12T06:09:02.803Z,1021.85
2018-09-12T06:10:02.977Z,1021.86
2018-09-12T06:11:02.832Z,1021.84
2018-09-12T06:12:03.135Z,1021.84
2018-09-12T06:13:02.689Z,1021.81
2018-09-12T06:14:03.223Z,1021.85
2018-09-12T06:15:03.126Z,1021.79
2018-09-12T06:16:02.743Z,1021.8
2018-09-12T06:17:02.969Z,1021.85
2018-09-12T06:18:03.021Z,1021.82
2018-09-12T06:19:02.788Z,1021.84
2018-09-12T06:20:03.036Z,1021.83
2018-09-12T06:21:02.693Z,1021.85
2018-09-12T06:22:02.978Z,1021.86
2018-09-12T06:23:02.856Z,1021.87
2018-09-12T06:24:02.679Z,1021.88
2018-09-12T06:25:03.231Z,1021.87
2018-09-12T06:26:02.979Z,1021.85
2018-09-12T06:27:02.795Z,1021.82
2018-09-12T06:28:03.180Z,1021.93
2018-09-12T06:29:03.019Z,1021.88
2018-09-12T06:30:02.923Z,1021.93
2018-09-12T06:31:02.926Z,1021.88
2018-09-12T06:32:02.865Z,1021.89
2018-09-12T06:33:03.049Z,1021.86
2018-09-12T06:34:02.765Z,1021.9
2018-09-12T06:35:02.784Z,1021.92
2018-09-12T06:36:02.801Z,1021.9
2018-09-12T06:37:03.483Z,1021.93
2018-09-12T06:38:02.788Z,1021.93
2018-09-12T06:39:02.880Z,1021.86
2018-09-12T06:40:03.210Z,1021.87
2018-09-12T06:41:02.760Z,1021.88
2018-09-12T06:42:02.965Z,1021.9
2018-09-12T06:43:02.782Z,1021.86
2018-09-12T06:44:02.901Z,1021.9
2018-09-12T06:45:02.931Z,1021.9
2018-09-12T06:46:02.761Z,1021.92
2018-09-12T06:47:02.802Z,1021.96
2018-09-12T06:48:02.862Z,1021.93
2018-09-12T06:49:02.769Z,1021.94
2018-09-12T06:50:02.725Z,1021.92
2018-09-12T06:51:02.774Z,1021.89
2018-09-12T06:52:02.908Z,1021.89
2018-09-12T06:53:02.681Z,1021.87
2018-09-12T06:54:03.001Z,1021.85
2018-09-12T06:55:02.953Z,1021.89
2018-09-12T06:56:02.701Z,1021.87
2018-09-12T06:57:02.759Z,1021.86
2018-09-12T06:58:02.817Z,1021.82
2018-09-12T06:59:02.931Z,1021.84
2018-09-12T07:00:02.766Z,1021.87
2018-09-12T07:01:03.015Z,1021.86
2018-09-12T07:02:02.826Z,1021.84
2018-09-12T07:03:02.768Z,1021.91
2018-09-12T07:04:02.874Z,1021.86
2018-09-12T07:05:02.631Z,1021.85
2018-09-12T07:06:02.744Z,1021.86
2018-09-12T07:07:03.043Z,1021.83
2018-09-12T07:08:02.707Z,1021.84
2018-09-12T07:09:02.941Z,1021.82
2018-09-12T07:10:03.388Z,1021.79
2018-09-12T07:11:02.954Z,1021.81
2018-09-12T07:12:03.040Z,1021.81
2018-09-12T07:13:02.908Z,1021.84
2018-09-12T07:14:03.066Z,1021.82
2018-09-12T07:15:03.007Z,1021.88
2018-09-12T07:16:02.764Z,1021.85
2018-09-12T07:17:02.996Z,1021.83
2018-09-12T07:18:03.128Z,1021.84
2018-09-12T07:19:02.742Z,1021.89
2018-09-12T07:20:02.798Z,1021.9
2018-09-12T07:21:02.924Z,1021.92
2018-09-12T07:22:02.779Z,1021.92
2018-09-12T07:23:02.742Z,1021.92
2018-09-12T07:24:03.005Z,1021.89
2018-09-12T07:25:03.055Z,1021.82
2018-09-12T07:26:02.847Z,1021.86
2018-09-12T07:27:02.895Z,1021.87
2018-09-12T07:28:02.989Z,1021.78
2018-09-12T07:29:02.728Z,1021.8
2018-09-12T07:30:02.758Z,1021.81
2018-09-12T07:31:02.744Z,1021.82
2018-09-12T07:32:02.710Z,1021.76
2018-09-12T07:33:02.873Z,1021.81
2018-09-12T07:34:02.814Z,1021.85
2018-09-12T07:35:02.877Z,1021.83
2018-09-12T07:36:02.840Z,1021.92
2018-09-12T07:37:02.698Z,1021.92
2018-09-12T07:38:02.659Z,1021.93
2018-09-12T07:39:02.888Z,1021.88
2018-09-12T07:40:02.995Z,1021.89
2018-09-12T07:41:02.800Z,1021.9
2018-09-12T07:42:02.947Z,1021.98
2018-09-12T07:43:02.844Z,1021.97
2018-09-12T07:44:02.864Z,1021.93
2018-09-12T07:45:02.989Z,1021.94
2018-09-12T07:46:02.797Z,1021.97
2018-09-12T07:47:02.922Z,1021.96
2018-09-12T07:48:02.991Z,1021.96
2018-09-12T07:49:03.030Z,1021.95
2018-09-12T07:50:03.252Z,1021.95
2018-09-12T07:51:02.733Z,1021.97
2018-09-12T07:52:02.780Z,1021.98
2018-09-12T07:53:02.812Z,1021.96
2018-09-12T07:54:02.764Z,1021.98
2018-09-12T07:55:02.767Z,1021.96
2018-09-12T07:56:03.229Z,1022.05
2018-09-12T07:57:02.948Z,1022.04
2018-09-12T07:58:02.802Z,1022.01
2018-09-12T07:59:02.803Z,1022.07
2018-09-12T08:00:03.369Z,1022.01
2018-09-12T08:01:02.681Z,1022.04
2018-09-12T08:02:02.741Z,1022.02
2018-09-12T08:03:02.954Z,1022.04
2018-09-12T08:04:02.734Z,1022.03
2018-09-12T08:05:02.752Z,1022.01
2018-09-12T08:06:03.071Z,1022
2018-09-12T08:07:02.842Z,1022.01
2018-09-12T08:08:02.790Z,1021.96
2018-09-12T08:09:02.728Z,1022.02
2018-09-12T08:10:02.917Z,1021.96
2018-09-12T08:11:02.691Z,1022.02
2018-09-12T08:12:02.759Z,1021.95
2018-09-12T08:13:02.654Z,1021.95
2018-09-12T08:14:02.812Z,1021.91
2018-09-12T08:15:02.865Z,1021.96
2018-09-12T08:16:02.835Z,1021.96
2018-09-12T08:17:02.830Z,1021.92
2018-09-12T08:18:02.793Z,1021.99
2018-09-12T08:19:03.165Z,1021.95
2018-09-12T08:20:02.652Z,1022.01
2018-09-12T08:21:02.644Z,1021.99
2018-09-12T08:22:02.836Z,1021.97
2018-09-12T08:23:02.884Z,1021.96
2018-09-12T08:24:02.898Z,1021.93
2018-09-12T08:25:02.951Z,1021.91
2018-09-12T08:26:02.779Z,1021.87
2018-09-12T08:27:02.749Z,1021.8
2018-09-12T08:28:02.879Z,1021.89
2018-09-12T08:29:02.889Z,1021.86
2018-09-12T08:30:02.823Z,1021.85
2018-09-12T08:31:02.826Z,1021.82
2018-09-12T08:32:02.825Z,1021.88
2018-09-12T08:33:02.951Z,1021.83
2018-09-12T08:34:03.125Z,1021.86
2018-09-12T08:35:02.991Z,1021.87
2018-09-12T08:36:02.843Z,1021.84
2018-09-12T08:37:02.980Z,1021.87
2018-09-12T08:38:03.009Z,1021.81
2018-09-12T08:39:02.846Z,1021.84
2018-09-12T08:40:02.835Z,1021.84
2018-09-12T08:41:02.741Z,1021.86
2018-09-12T08:42:03.109Z,1021.81
2018-09-12T08:43:03.074Z,1021.89
2018-09-12T08:44:02.987Z,1021.87
2018-09-12T08:45:03.012Z,1021.87
2018-09-12T08:46:02.604Z,1021.89
2018-09-12T08:47:02.842Z,1021.89
2018-09-12T08:48:02.932Z,1021.94
2018-09-12T08:49:02.818Z,1021.91
2018-09-12T08:50:02.894Z,1021.9
2018-09-12T08:51:02.937Z,1021.86
2018-09-12T08:52:02.808Z,1021.87
2018-09-12T08:53:03.202Z,1021.88
2018-09-12T08:54:02.984Z,1021.86
2018-09-12T08:55:02.897Z,1021.85
2018-09-12T08:56:02.703Z,1021.77
2018-09-12T08:57:02.761Z,1021.83
2018-09-12T08:58:02.817Z,1021.85
2018-09-12T08:59:02.962Z,1021.81
2018-09-12T09:00:02.789Z,1021.8
2018-09-12T09:01:02.790Z,1021.85
2018-09-12T09:02:02.901Z,1021.84
2018-09-12T09:03:02.815Z,1021.9
2018-09-12T09:04:03.072Z,1021.84
2018-09-12T09:05:03.079Z,1021.85
2018-09-12T09:06:02.743Z,1021.84
2018-09-12T09:07:03.000Z,1021.83
2018-09-12T09:08:02.884Z,1021.75
2018-09-12T09:09:02.756Z,1021.79
2018-09-12T09:10:02.967Z,1021.8
2018-09-12T09:11:02.867Z,1021.78
2018-09-12T09:12:02.843Z,1021.83
2018-09-12T09:13:02.847Z,1021.83
2018-09-12T09:14:02.860Z,1021.79
2018-09-12T09:15:02.922Z,1021.75
2018-09-12T09:16:02.891Z,1021.75
2018-09-12T09:17:02.922Z,1021.76
2018-09-12T09:18:02.871Z,1021.8
2018-09-12T09:19:02.798Z,1021.76
2018-09-12T09:20:02.901Z,1021.78
2018-09-12T09:21:02.740Z,1021.74
2018-09-12T09:22:02.927Z,1021.74
2018-09-12T09:23:02.639Z,1021.81
2018-09-12T09:24:02.958Z,1021.78
2018-09-12T09:25:03.028Z,1021.74
2018-09-12T09:26:02.833Z,1021.75
2018-09-12T09:27:02.642Z,1021.81
2018-09-12T09:28:02.829Z,1021.73
2018-09-12T09:29:02.752Z,1021.72
2018-09-12T09:30:02.764Z,1021.69
2018-09-12T09:31:02.674Z,1021.7
2018-09-12T09:32:02.983Z,1021.75
2018-09-12T09:33:02.637Z,1021.72
2018-09-12T09:34:02.828Z,1021.66
2018-09-12T09:35:03.316Z,1021.68
2018-09-12T09:36:02.855Z,1021.73
2018-09-12T09:37:02.874Z,1021.72
2018-09-12T09:38:02.673Z,1021.71
2018-09-12T09:39:02.730Z,1021.69
2018-09-12T09:40:02.683Z,1021.7
2018-09-12T09:41:02.831Z,1021.68
2018-09-12T09:42:02.950Z,1021.72
2018-09-12T09:43:02.779Z,1021.7
2018-09-12T09:44:02.941Z,1021.66
2018-09-12T09:45:02.745Z,1021.67
2018-09-12T09:46:02.888Z,1021.63
2018-09-12T09:47:02.892Z,1021.6
2018-09-12T09:48:03.146Z,1021.58
2018-09-12T09:49:02.740Z,1021.57
2018-09-12T09:50:02.717Z,1021.58
2018-09-12T09:51:02.770Z,1021.51
2018-09-12T09:52:02.716Z,1021.59
2018-09-12T09:53:02.722Z,1021.58
2018-09-12T09:54:03.125Z,1021.49
2018-09-12T09:55:03.236Z,1021.5
2018-09-12T09:56:02.852Z,1021.5
2018-09-12T09:57:03.054Z,1021.48
2018-09-12T09:58:03.060Z,1021.49
2018-09-12T09:59:02.853Z,1021.51
2018-09-12T10:00:02.941Z,1021.45
2018-09-12T10:01:03.031Z,1021.45
2018-09-12T10:02:02.743Z,1021.46
2018-09-12T10:03:02.939Z,1021.46
2018-09-12T10:04:02.609Z,1021.46
2018-09-12T10:05:02.641Z,1021.48
2018-09-12T10:06:03.117Z,1021.47
2018-09-12T10:07:02.824Z,1021.48
2018-09-12T10:08:02.787Z,1021.48
2018-09-12T10:09:02.745Z,1021.42
2018-09-12T10:10:02.807Z,1021.47
2018-09-12T10:11:02.834Z,1021.45
2018-09-12T10:12:02.677Z,1021.47
2018-09-12T10:13:02.785Z,1021.4
2018-09-12T10:14:02.892Z,1021.42
2018-09-12T10:15:02.795Z,1021.42
2018-09-12T10:16:02.721Z,1021.38
2018-09-12T10:17:03.054Z,1021.37
2018-09-12T10:18:02.780Z,1021.36
2018-09-12T10:19:02.877Z,1021.31
2018-09-12T10:20:02.796Z,1021.3
2018-09-12T10:21:02.992Z,1021.36
2018-09-12T10:22:02.791Z,1021.3
2018-09-12T10:23:02.794Z,1021.34
2018-09-12T10:24:02.712Z,1021.33
2018-09-12T10:25:02.945Z,1021.35
2018-09-12T10:26:02.885Z,1021.31
2018-09-12T10:27:02.811Z,1021.31
2018-09-12T10:28:02.826Z,1021.25
2018-09-12T10:29:02.959Z,1021.28
2018-09-12T10:30:02.836Z,1021.29
2018-09-12T10:31:02.763Z,1021.29
2018-09-12T10:32:02.737Z,1021.25
2018-09-12T10:33:02.785Z,1021.22
2018-09-12T10:34:02.887Z,1021.23
2018-09-12T10:35:03.002Z,1021.21
2018-09-12T10:36:02.949Z,1021.21
2018-09-12T10:37:03.051Z,1021.23
2018-09-12T10:38:02.762Z,1021.17
2018-09-12T10:39:02.924Z,1021.17
2018-09-12T10:40:02.793Z,1021.12
2018-09-12T10:41:03.358Z,1021.14
2018-09-12T10:42:02.898Z,1021.18
2018-09-12T10:43:02.872Z,1021.18
2018-09-12T10:44:02.735Z,1021.1
2018-09-12T10:45:02.954Z,1021.09
2018-09-12T10:46:02.906Z,1021.08
2018-09-12T10:47:02.742Z,1021.05
2018-09-12T10:48:02.792Z,1021.07
2018-09-12T10:49:02.994Z,1021.05
2018-09-12T10:50:02.901Z,1021.02
2018-09-12T10:51:02.874Z,1020.99
2018-09-12T10:52:02.869Z,1020.98
2018-09-12T10:53:02.680Z,1020.94
2018-09-12T10:54:02.795Z,1020.97
2018-09-12T10:55:03.020Z,1021.02
2018-09-12T10:56:02.836Z,1020.99
2018-09-12T10:57:02.603Z,1020.98
2018-09-12T10:58:02.683Z,1021
2018-09-12T10:59:03.005Z,1020.98
2018-09-12T11:00:02.804Z,1020.95
2018-09-12T11:01:03.147Z,1020.87
2018-09-12T11:02:02.817Z,1020.88
2018-09-12T11:03:02.818Z,1020.92
2018-09-12T11:04:03.010Z,1020.87
2018-09-12T11:05:02.895Z,1020.84
2018-09-12T11:06:02.663Z,1020.85
2018-09-12T11:07:02.807Z,1020.84
2018-09-12T11:08:02.657Z,1020.83
2018-09-12T11:09:02.743Z,1020.83
2018-09-12T11:10:02.831Z,1020.79
2018-09-12T11:11:02.840Z,1020.75
2018-09-12T11:12:02.912Z,1020.8
2018-09-12T11:13:02.894Z,1020.83
2018-09-12T11:14:02.958Z,1020.77
2018-09-12T11:15:02.775Z,1020.82
2018-09-12T11:16:03.156Z,1020.81
2018-09-12T11:17:02.858Z,1020.78
2018-09-12T11:18:03.042Z,1020.76
2018-09-12T11:19:02.942Z,1020.74
2018-09-12T11:20:02.876Z,1020.77
2018-09-12T11:21:02.970Z,1020.74
2018-09-12T11:22:02.824Z,1020.71
2018-09-12T11:23:03.088Z,1020.73
2018-09-12T11:24:03.250Z,1020.7
2018-09-12T11:25:02.860Z,1020.69
2018-09-12T11:26:02.845Z,1020.61
2018-09-12T11:27:02.778Z,1020.61
2018-09-12T11:28:03.035Z,1020.65
2018-09-12T11:29:02.854Z,1020.62
2018-09-12T11:30:02.761Z,1020.58
2018-09-12T11:31:02.858Z,1020.58
2018-09-12T11:32:02.954Z,1020.57
2018-09-12T11:33:02.802Z,1020.55
2018-09-12T11:34:02.724Z,1020.54
2018-09-12T11:35:03.127Z,1020.59
2018-09-12T11:36:02.903Z,1020.51
2018-09-12T11:37:02.898Z,1020.53
2018-09-12T11:38:02.717Z,1020.46
2018-09-12T11:39:03.027Z,1020.52
2018-09-12T11:40:02.953Z,1020.44
2018-09-12T11:41:03.079Z,1020.46
2018-09-12T11:42:02.951Z,1020.41
2018-09-12T11:43:02.647Z,1020.45
2018-09-12T11:44:02.949Z,1020.43
2018-09-12T11:45:03.289Z,1020.38
2018-09-12T11:46:02.779Z,1020.44
2018-09-12T11:47:02.924Z,1020.4
2018-09-12T11:48:02.824Z,1020.38
2018-09-12T11:49:02.916Z,1020.4
2018-09-12T11:50:02.772Z,1020.47
2018-09-12T11:51:02.865Z,1020.38
2018-09-12T11:52:02.678Z,1020.37
2018-09-12T11:53:02.856Z,1020.38
2018-09-12T11:54:02.914Z,1020.35
2018-09-12T11:55:03.055Z,1020.35
2018-09-12T11:56:02.853Z,1020.34
2018-09-12T11:57:02.817Z,1020.34
2018-09-12T11:58:02.755Z,1020.33
2018-09-12T11:59:02.728Z,1020.28
2018-09-12T12:00:02.936Z,1020.27
2018-09-12T12:01:02.874Z,1020.22
2018-09-12T12:02:02.947Z,1020.29
2018-09-12T12:03:02.978Z,1020.27
2018-09-12T12:04:03.034Z,1020.29
2018-09-12T12:05:02.864Z,1020.24
2018-09-12T12:06:02.792Z,1020.21
2018-09-12T12:07:02.716Z,1020.15
2018-09-12T12:08:02.955Z,1020.2